createdAt,value
2022-12-19T00:00:38.444Z,31.20
2022-12-19T00:03:08.582Z,28.57
2022-12-19T00:05:40.627Z,25.57
2022-12-19T00:08:18.164Z,29.90
2022-12-19T00:10:56.908Z,27.07
2022-12-19T00:13:27.283Z,26.43
2022-12-19T00:16:03.993Z,29.70
2022-12-19T00:18:33.950Z,28.33
2022-12-19T00:21:05.840Z,30.80
2022-12-19T00:23:37.770Z,32.60
2022-12-19T00:26:13.090Z,32.17
2022-12-19T00:28:43.552Z,33.63
2022-12-19T00:31:20.354Z,28.47
2022-12-19T00:33:51.286Z,30.93
2022-12-19T00:36:23.170Z,33.43
2022-12-19T00:38:54.353Z,27.00
2022-12-19T00:41:25.625Z,28.77
2022-12-19T00:43:56.820Z,28.87
2022-12-19T00:46:30.995Z,28.43
2022-12-19T00:49:00.919Z,31.77
2022-12-19T00:51:32.575Z,27.53
2022-12-19T00:54:03.098Z,29.83
2022-12-19T00:56:37.710Z,29.47
2022-12-19T00:59:09.022Z,30.47
2022-12-19T01:01:43.855Z,30.83
2022-12-19T01:04:28.110Z,31.67
2022-12-19T01:07:01.921Z,31.83
2022-12-19T01:09:32.711Z,29.77
2022-12-19T01:12:14.832Z,32.57
2022-12-19T01:14:44.533Z,31.73
2022-12-19T01:17:16.839Z,31.50
2022-12-19T01:19:46.541Z,30.17
2022-12-19T01:22:16.718Z,31.83
2022-12-19T01:24:46.503Z,31.27
2022-12-19T01:27:16.264Z,30.80
2022-12-19T01:29:52.714Z,32.77
2022-12-19T01:32:25.828Z,29.23
2022-12-19T01:34:55.673Z,31.27
2022-12-19T01:37:25.514Z,27.43
2022-12-19T01:39:55.396Z,29.57
2022-12-19T01:42:26.129Z,31.90
2022-12-19T01:45:33.427Z,30.37
2022-12-19T01:48:21.617Z,32.30
2022-12-19T01:51:01.439Z,33.07
2022-12-19T01:53:37.329Z,29.03
2022-12-19T01:56:20.281Z,31.80
2022-12-19T01:58:55.415Z,31.03
2022-12-19T02:01:40.872Z,35.53
2022-12-19T02:04:24.630Z,31.53
2022-12-19T02:06:55.900Z,33.73
2022-12-19T02:09:25.655Z,29.27
2022-12-19T02:11:56.317Z,31.30
2022-12-19T02:14:26.451Z,31.17
2022-12-19T02:17:01.925Z,29.70
2022-12-19T02:20:02.649Z,31.70
2022-12-19T02:22:43.182Z,33.70
2022-12-19T02:25:45.699Z,32.83
2022-12-19T02:28:35.742Z,29.17
2022-12-19T02:31:17.483Z,32.13
2022-12-19T02:33:55.464Z,34.30
2022-12-19T02:36:38.992Z,31.80
2022-12-19T02:39:13.717Z,36.10
2022-12-19T02:41:49.151Z,31.13
2022-12-19T02:44:24.773Z,33.40
2022-12-19T02:46:58.349Z,34.57
2022-12-19T02:49:31.139Z,34.20
2022-12-19T02:52:01.206Z,34.37
2022-12-19T02:54:30.966Z,38.20
2022-12-19T02:57:12.364Z,31.53
2022-12-19T02:59:55.303Z,33.57
2022-12-19T03:02:39.153Z,32.10
2022-12-19T03:05:17.163Z,33.27
2022-12-19T03:07:54.131Z,34.00
2022-12-19T03:10:34.571Z,32.70
2022-12-19T03:13:09.054Z,32.07
2022-12-19T03:15:43.231Z,34.97
2022-12-19T03:18:16.288Z,33.03
2022-12-19T03:20:51.110Z,33.87
2022-12-19T03:23:21.544Z,32.33
2022-12-19T03:25:55.257Z,34.87
2022-12-19T03:28:30.133Z,37.00
2022-12-19T03:31:02.743Z,36.83
2022-12-19T03:33:37.092Z,37.70
2022-12-19T03:36:10.964Z,34.13
2022-12-19T03:38:43.389Z,36.07
2022-12-19T03:41:15.676Z,33.70
2022-12-19T03:43:45.620Z,34.33
2022-12-19T03:46:21.760Z,39.30
2022-12-19T03:48:57.342Z,37.00
2022-12-19T03:51:34.703Z,36.93
2022-12-19T03:54:09.098Z,33.87
2022-12-19T03:56:45.941Z,37.10
2022-12-19T03:59:22.315Z,33.53
2022-12-19T04:01:54.798Z,34.00
2022-12-19T04:04:29.996Z,34.80
2022-12-19T04:07:01.674Z,35.83
2022-12-19T04:09:33.440Z,35.77
2022-12-19T04:12:05.970Z,35.77
2022-12-19T04:14:38.640Z,38.50
2022-12-19T04:17:16.665Z,34.77
2022-12-19T04:19:54.251Z,37.13
2022-12-19T04:22:29.964Z,36.97
2022-12-19T04:25:02.283Z,37.57
2022-12-19T04:27:34.328Z,37.67
2022-12-19T04:30:05.590Z,36.03
2022-12-19T04:32:38.435Z,35.43
2022-12-19T04:35:11.697Z,38.30
2022-12-19T04:37:41.612Z,38.50
2022-12-19T04:40:12.926Z,40.80
2022-12-19T04:42:42.641Z,37.40
2022-12-19T04:45:13.320Z,37.60
2022-12-19T04:47:43.225Z,38.70
2022-12-19T04:50:15.734Z,40.80
2022-12-19T04:52:45.417Z,44.27
2022-12-19T04:55:15.169Z,38.63
2022-12-19T04:57:44.874Z,36.07
2022-12-19T05:00:16.023Z,36.40
2022-12-19T05:02:45.836Z,33.57
2022-12-19T05:05:19.051Z,33.97
2022-12-19T05:07:49.306Z,34.73
2022-12-19T05:10:19.091Z,38.90
2022-12-19T05:12:48.831Z,37.87
2022-12-19T05:15:18.647Z,41.13
2022-12-19T05:17:48.367Z,36.80
2022-12-19T05:20:21.010Z,39.10
2022-12-19T05:22:50.880Z,35.33
2022-12-19T05:25:20.715Z,40.53
2022-12-19T05:27:50.530Z,35.37
2022-12-19T05:30:20.362Z,39.27
2022-12-19T05:32:50.142Z,35.63
2022-12-19T05:35:22.485Z,37.87
2022-12-19T05:37:52.451Z,34.70
2022-12-19T05:40:22.185Z,35.93
2022-12-19T05:42:51.917Z,36.73
2022-12-19T05:45:21.707Z,37.60
2022-12-19T05:47:51.623Z,34.47
2022-12-19T05:50:23.986Z,30.37
2022-12-19T05:52:53.769Z,34.87
2022-12-19T05:55:23.524Z,36.63
2022-12-19T05:57:53.312Z,33.90
2022-12-19T06:00:23.901Z,31.40
2022-12-19T06:02:53.719Z,31.23
2022-12-19T06:05:26.130Z,32.03
2022-12-19T06:07:55.846Z,28.20
2022-12-19T06:10:25.567Z,28.37
2022-12-19T06:12:55.296Z,29.23
2022-12-19T06:15:25.142Z,28.87
2022-12-19T06:17:57.070Z,27.00
2022-12-19T06:20:29.453Z,27.47
2022-12-19T06:22:59.246Z,26.37
2022-12-19T06:25:29.068Z,27.63
2022-12-19T06:27:58.868Z,23.93
2022-12-19T06:30:28.666Z,23.50
2022-12-19T06:32:58.512Z,23.13
2022-12-19T06:35:31.144Z,22.10
2022-12-19T06:38:01.233Z,22.63
2022-12-19T06:40:43.465Z,21.47
2022-12-19T06:43:13.311Z,22.03
2022-12-19T06:45:43.075Z,24.13
2022-12-19T06:48:12.959Z,21.23
2022-12-19T06:50:45.420Z,22.53
2022-12-19T06:53:15.280Z,20.43
2022-12-19T06:55:45.394Z,19.93
2022-12-19T06:58:16.070Z,20.03
2022-12-19T07:00:48.067Z,18.40
2022-12-19T07:03:21.728Z,24.53
2022-12-19T07:05:54.123Z,19.27
2022-12-19T07:08:23.880Z,18.33
2022-12-19T07:10:53.966Z,18.73
2022-12-19T07:13:23.813Z,18.07
2022-12-19T07:15:55.410Z,13.23
2022-12-19T07:18:25.211Z,14.73
2022-12-19T07:20:59.640Z,16.70
2022-12-19T07:23:29.499Z,14.33
2022-12-19T07:26:00.724Z,14.00
2022-12-19T07:28:30.570Z,13.00
2022-12-19T07:31:00.333Z,14.17
2022-12-19T07:33:30.164Z,14.27
2022-12-19T07:36:02.595Z,13.13
2022-12-19T07:38:32.386Z,13.77
2022-12-19T07:41:04.162Z,12.57
2022-12-19T07:43:34.061Z,11.27
2022-12-19T07:46:03.846Z,15.03
2022-12-19T07:48:33.943Z,13.93
2022-12-19T07:51:10.584Z,13.80
2022-12-19T07:53:40.427Z,12.37
2022-12-19T07:56:11.243Z,13.23
2022-12-19T07:58:41.310Z,11.33
2022-12-19T08:01:12.354Z,11.33
2022-12-19T08:03:42.312Z,12.93
2022-12-19T08:06:14.879Z,12.03
2022-12-19T08:08:44.670Z,11.87
2022-12-19T08:11:17.440Z,12.50
2022-12-19T08:13:47.289Z,11.63
2022-12-19T08:16:17.702Z,11.93
2022-12-19T08:18:48.026Z,13.17
2022-12-19T08:21:20.369Z,12.70
2022-12-19T08:23:50.145Z,11.20
2022-12-19T08:26:25.557Z,11.80
2022-12-19T08:28:55.813Z,11.37
2022-12-19T08:31:27.743Z,12.07
2022-12-19T08:33:59.453Z,10.17
2022-12-19T08:36:31.778Z,9.97
2022-12-19T08:39:01.510Z,11.00
2022-12-19T08:41:31.227Z,9.77
2022-12-19T08:44:01.966Z,11.50
2022-12-19T08:46:31.986Z,10.27
2022-12-19T08:49:01.998Z,10.07
2022-12-19T08:51:34.610Z,10.80
2022-12-19T08:54:05.156Z,9.37
2022-12-19T08:56:50.501Z,10.10
2022-12-19T08:59:30.201Z,10.90
2022-12-19T09:02:01.517Z,9.97
2022-12-19T09:05:52.854Z,10.60
2022-12-19T09:07:38.862Z,12.50
2022-12-19T09:10:10.189Z,10.27
2022-12-19T09:12:39.954Z,10.47
2022-12-19T09:15:10.547Z,10.67
2022-12-19T09:17:40.663Z,13.30
2022-12-19T09:20:12.271Z,11.40
2022-12-19T09:22:44.862Z,10.90
2022-12-19T09:25:14.655Z,11.27
2022-12-19T09:28:17.964Z,12.43
2022-12-19T09:30:34.539Z,11.77
2022-12-19T09:33:05.842Z,12.27
2022-12-19T09:35:35.590Z,11.93
2022-12-19T09:38:07.968Z,11.43
2022-12-19T09:40:54.634Z,13.00
2022-12-19T09:43:41.144Z,13.63
2022-12-19T09:46:19.380Z,11.37
2022-12-19T09:48:54.581Z,14.10
2022-12-19T09:51:37.398Z,11.73
2022-12-19T09:54:17.208Z,12.43
2022-12-19T09:56:48.475Z,14.17
2022-12-19T09:59:39.713Z,13.50
2022-12-19T10:02:26.970Z,14.10
2022-12-19T10:05:16.872Z,13.80
2022-12-19T10:08:08.468Z,13.20
2022-12-19T10:12:39.486Z,14.93
2022-12-19T10:14:03.557Z,11.93
2022-12-19T10:17:08.503Z,13.70
2022-12-19T10:19:45.738Z,13.20
2022-12-19T10:22:26.841Z,13.17
2022-12-19T10:25:17.231Z,12.00
2022-12-19T10:27:59.662Z,12.67
2022-12-19T10:30:33.690Z,13.67
2022-12-19T10:33:20.570Z,12.80
2022-12-19T10:35:57.571Z,11.67
2022-12-19T10:38:38.805Z,11.80
2022-12-19T10:41:19.449Z,13.37
2022-12-19T10:43:59.590Z,12.40
2022-12-19T10:46:40.512Z,11.30
2022-12-19T10:49:17.334Z,14.07
2022-12-19T10:51:56.612Z,14.87
2022-12-19T10:54:33.402Z,13.43
2022-12-19T10:57:21.138Z,12.87
2022-12-19T11:00:04.829Z,15.53
2022-12-19T11:02:44.609Z,13.53
2022-12-19T11:05:28.024Z,11.17
2022-12-19T11:08:06.837Z,12.00
2022-12-19T11:12:42.475Z,12.70
2022-12-19T11:20:06.090Z,11.93
2022-12-19T11:21:11.703Z,12.33
2022-12-19T11:29:41.548Z,11.97
2022-12-19T11:30:41.365Z,11.83
2022-12-19T11:30:47.446Z,12.33
2022-12-19T11:30:47.824Z,13.63
2022-12-19T11:32:31.999Z,12.00
2022-12-19T11:34:09.693Z,11.67
2022-12-19T11:36:45.852Z,10.67
2022-12-19T11:39:23.177Z,11.27
2022-12-19T11:42:03.284Z,11.83
2022-12-19T11:44:39.047Z,10.90
2022-12-19T11:47:21.727Z,10.43
2022-12-19T11:50:01.547Z,11.23
2022-12-19T11:55:43.630Z,9.50
2022-12-19T11:58:14.140Z,11.90
2022-12-19T12:00:53.604Z,10.37
2022-12-19T12:04:01.734Z,11.73
2022-12-19T12:06:39.925Z,9.77
2022-12-19T12:12:22.395Z,10.00
2022-12-19T12:22:19.209Z,12.80
2022-12-19T12:24:48.052Z,10.07
2022-12-19T12:31:08.710Z,10.80
2022-12-19T12:31:31.739Z,9.57
2022-12-19T12:31:47.315Z,10.20
2022-12-19T12:31:50.629Z,9.23
2022-12-19T12:31:52.922Z,12.50
2022-12-19T12:35:38.052Z,10.00
2022-12-19T12:38:12.230Z,11.40
2022-12-19T12:39:43.003Z,10.23
2022-12-19T12:42:21.449Z,8.87
2022-12-19T12:44:55.644Z,9.67
2022-12-19T12:47:27.119Z,8.90
2022-12-19T12:50:00.853Z,9.50
2022-12-19T12:52:38.254Z,8.13
2022-12-19T12:55:17.525Z,9.47
2022-12-19T12:57:47.357Z,9.93
2022-12-19T13:00:24.058Z,9.43
2022-12-19T13:02:57.957Z,8.90
2022-12-19T13:05:55.998Z,10.60
2022-12-19T13:08:39.264Z,9.50
2022-12-19T13:11:34.607Z,9.50
2022-12-19T13:14:04.437Z,8.33
2022-12-19T13:16:56.090Z,12.70
2022-12-19T13:19:29.342Z,10.37
2022-12-19T13:22:21.726Z,7.60
2022-12-19T13:24:55.915Z,8.37
2022-12-19T13:27:36.699Z,9.10
2022-12-19T13:30:21.603Z,10.17
2022-12-19T13:33:10.849Z,8.20
2022-12-19T13:39:45.238Z,8.47
2022-12-19T13:39:51.268Z,9.33
2022-12-19T13:41:55.105Z,9.67
2022-12-19T13:44:25.329Z,8.73
2022-12-19T13:46:58.059Z,8.83
2022-12-19T13:49:34.663Z,10.47
2022-12-19T13:52:07.987Z,8.57
2022-12-19T13:54:48.867Z,8.80
2022-12-19T13:57:28.281Z,8.37
2022-12-19T14:00:02.975Z,7.43
2022-12-19T14:02:44.976Z,9.27
2022-12-19T14:05:48.585Z,7.90
2022-12-19T14:08:22.463Z,8.17
2022-12-19T14:11:40.505Z,9.30
2022-12-19T14:14:15.064Z,9.63
2022-12-19T14:16:49.145Z,7.87
2022-12-19T14:19:24.599Z,7.40
2022-12-19T14:22:10.193Z,8.07
2022-12-19T14:24:42.475Z,8.70
2022-12-19T14:28:20.451Z,8.27
2022-12-19T14:30:29.828Z,9.10
2022-12-19T14:33:45.424Z,8.50
2022-12-19T14:36:06.919Z,10.30
2022-12-19T14:39:23.376Z,11.13
2022-12-19T14:42:00.881Z,10.23
2022-12-19T14:53:52.265Z,8.83
2022-12-19T14:54:01.163Z,9.27
2022-12-19T14:54:07.659Z,8.90
2022-12-19T14:54:31.210Z,9.53
2022-12-19T14:56:57.665Z,9.47
2022-12-19T14:59:08.494Z,10.13
2022-12-19T15:01:38.784Z,8.60
2022-12-19T15:04:50.229Z,9.33
2022-12-19T15:07:12.915Z,8.73
2022-12-19T15:11:08.036Z,9.63
2022-12-19T15:14:48.363Z,8.47
2022-12-19T15:15:58.961Z,8.20
2022-12-19T15:18:31.482Z,7.70
2022-12-19T15:21:05.839Z,8.17
2022-12-19T15:23:35.850Z,7.57
2022-12-19T15:26:08.575Z,10.57
2022-12-19T15:28:42.197Z,8.07
2022-12-19T15:31:24.555Z,10.10
2022-12-19T15:36:46.802Z,7.90
2022-12-19T15:39:17.815Z,7.90
2022-12-19T15:41:49.630Z,9.57
2022-12-19T15:44:22.908Z,9.20
2022-12-19T15:46:52.769Z,7.00
2022-12-19T15:49:24.096Z,9.37
2022-12-19T15:51:56.530Z,7.30
2022-12-19T15:57:32.110Z,9.00
2022-12-19T16:00:05.253Z,8.77
2022-12-19T16:03:21.341Z,9.03
2022-12-19T16:05:29.407Z,9.37
2022-12-19T16:08:02.042Z,7.87
2022-12-19T16:10:32.285Z,7.30
2022-12-19T16:13:02.057Z,7.63
2022-12-19T16:15:34.327Z,8.70
2022-12-19T16:18:05.851Z,7.90
2022-12-19T16:20:39.579Z,7.50
2022-12-19T16:23:12.485Z,8.60
2022-12-19T16:25:44.355Z,8.53
2022-12-19T16:28:20.595Z,7.17
2022-12-19T16:30:51.471Z,6.97
2022-12-19T16:33:24.571Z,7.67
2022-12-19T16:36:04.085Z,8.27
2022-12-19T16:38:37.686Z,8.67
2022-12-19T16:41:07.587Z,7.73
2022-12-19T16:43:41.443Z,8.10
2022-12-19T16:46:18.526Z,8.40
2022-12-19T16:48:48.882Z,8.03
2022-12-19T16:51:22.392Z,9.00
2022-12-19T16:53:57.664Z,7.40
2022-12-19T16:56:31.131Z,8.43
2022-12-19T16:59:03.012Z,8.50
2022-12-19T17:01:33.125Z,8.90
2022-12-19T17:04:03.002Z,8.53
2022-12-19T17:06:32.816Z,10.63
2022-12-19T17:09:05.186Z,9.47
2022-12-19T17:11:34.906Z,9.20
2022-12-19T17:14:08.440Z,10.30
2022-12-19T17:16:38.426Z,9.13
2022-12-19T17:19:08.581Z,10.80
2022-12-19T17:21:39.405Z,9.53
2022-12-19T17:24:15.844Z,8.57
2022-12-19T17:26:45.960Z,10.30
2022-12-19T17:29:16.580Z,11.23
2022-12-19T17:31:46.653Z,12.40
2022-12-19T17:34:20.641Z,9.37
2022-12-19T17:36:50.519Z,10.60
2022-12-19T17:39:25.768Z,8.93
2022-12-19T17:41:58.416Z,10.13
2022-12-19T17:44:28.320Z,9.00
2022-12-19T17:46:58.077Z,8.93
2022-12-19T17:49:32.112Z,8.23
2022-12-19T17:52:02.917Z,9.57
2022-12-19T17:54:35.272Z,7.60
2022-12-19T17:57:04.983Z,8.23
2022-12-19T17:59:34.842Z,8.73
2022-12-19T18:02:04.812Z,8.20
2022-12-19T18:04:34.852Z,8.53
2022-12-19T18:07:04.624Z,8.10
2022-12-19T18:09:37.082Z,7.63
2022-12-19T18:12:07.182Z,7.30
2022-12-19T18:14:37.447Z,7.00
2022-12-19T18:17:07.951Z,8.30
2022-12-19T18:19:37.920Z,9.80
2022-12-19T18:22:14.567Z,6.93
2022-12-19T18:24:46.983Z,8.20
2022-12-19T18:27:16.778Z,7.70
2022-12-19T18:29:46.520Z,6.90
2022-12-19T18:32:20.370Z,6.57
2022-12-19T18:34:50.347Z,8.90
2022-12-19T18:37:20.284Z,8.83
2022-12-19T18:39:55.720Z,7.37
2022-12-19T18:42:25.455Z,7.13
2022-12-19T18:44:55.513Z,7.37
2022-12-19T18:47:26.870Z,7.37
2022-12-19T18:49:56.678Z,8.53
2022-12-19T18:52:26.524Z,7.37
2022-12-19T18:54:59.139Z,8.47
2022-12-19T18:57:29.004Z,7.83
2022-12-19T18:59:58.748Z,9.83
2022-12-19T19:02:30.368Z,7.53
2022-12-19T19:05:00.448Z,7.97
2022-12-19T19:07:30.286Z,8.40
2022-12-19T19:10:02.667Z,8.37
2022-12-19T19:12:32.589Z,7.23
2022-12-19T19:15:02.425Z,11.13
2022-12-19T19:17:32.542Z,7.43
2022-12-19T19:20:02.597Z,8.97
2022-12-19T19:22:32.507Z,8.10
2022-12-19T19:25:04.852Z,7.93
2022-12-19T19:27:34.555Z,7.83
2022-12-19T19:30:04.845Z,7.67
2022-12-19T19:32:35.444Z,7.23
2022-12-19T19:35:09.659Z,9.23
2022-12-19T19:37:40.667Z,7.33
2022-12-19T19:40:14.720Z,7.10
2022-12-19T19:42:44.426Z,7.83
2022-12-19T19:45:14.696Z,9.27
2022-12-19T19:47:45.684Z,9.40
2022-12-19T19:50:15.925Z,6.93
2022-12-19T19:52:45.678Z,8.73
2022-12-19T19:55:17.994Z,8.17
2022-12-19T19:57:48.133Z,7.40
2022-12-19T20:00:18.522Z,8.63
2022-12-19T20:02:48.583Z,9.87
2022-12-19T20:05:18.700Z,8.87
2022-12-19T20:07:48.404Z,7.20
2022-12-19T20:10:20.909Z,8.07
2022-12-19T20:12:50.625Z,8.13
2022-12-19T20:15:22.729Z,8.37
2022-12-19T20:17:55.516Z,8.57
2022-12-19T20:20:25.577Z,8.27
2022-12-19T20:22:55.320Z,10.50
2022-12-19T20:25:27.728Z,8.33
2022-12-19T20:27:57.506Z,6.87
2022-12-19T20:30:27.260Z,6.37
2022-12-19T20:32:57.291Z,8.00
2022-12-19T20:35:27.044Z,9.43
2022-12-19T20:37:56.814Z,8.33
2022-12-19T20:40:29.377Z,8.73
2022-12-19T20:42:59.171Z,7.60
2022-12-19T20:45:28.942Z,7.60
2022-12-19T20:47:58.673Z,8.53
2022-12-19T20:50:28.432Z,7.33
2022-12-19T20:52:58.285Z,7.70
2022-12-19T20:55:30.671Z,7.73
2022-12-19T20:58:00.460Z,7.97
2022-12-19T21:00:30.209Z,7.50
2022-12-19T21:03:27.087Z,7.47
2022-12-19T21:05:55.300Z,8.00
2022-12-19T21:08:25.358Z,9.30
2022-12-19T21:10:57.797Z,9.33
2022-12-19T21:13:27.542Z,7.47
2022-12-19T21:15:58.641Z,7.40
2022-12-19T21:18:29.338Z,6.67
2022-12-19T21:20:59.693Z,9.13
2022-12-19T21:23:30.196Z,8.07
2022-12-19T21:26:04.927Z,6.67
2022-12-19T21:28:34.917Z,11.07
2022-12-19T21:31:06.868Z,8.67
2022-12-19T21:33:37.199Z,8.93
2022-12-19T21:36:11.159Z,8.73
2022-12-19T21:38:41.503Z,7.40
2022-12-19T21:41:18.948Z,8.63
2022-12-19T21:43:51.753Z,7.77
2022-12-19T21:46:22.801Z,7.90
2022-12-19T21:48:55.109Z,7.43
2022-12-19T21:51:27.672Z,7.80
2022-12-19T21:54:00.566Z,7.80
2022-12-19T21:56:34.521Z,7.37
2022-12-19T21:59:06.743Z,6.43
2022-12-19T22:01:37.062Z,9.63
2022-12-19T22:04:09.367Z,8.67
2022-12-19T22:06:40.140Z,6.63
2022-12-19T22:09:12.104Z,7.83
2022-12-19T22:11:44.986Z,7.47
2022-12-19T22:14:15.702Z,8.30
2022-12-19T22:16:45.857Z,6.97
2022-12-19T22:19:17.377Z,7.07
2022-12-19T22:21:48.431Z,8.00
2022-12-19T22:24:20.122Z,8.13
2022-12-19T22:26:52.475Z,7.00
2022-12-19T22:29:22.336Z,7.60
2022-12-19T22:31:52.414Z,7.40
2022-12-19T22:34:24.092Z,7.67
2022-12-19T22:36:53.831Z,10.40
2022-12-19T22:39:24.194Z,8.23
2022-12-19T22:41:56.578Z,5.77
2022-12-19T22:44:27.493Z,7.93
2022-12-19T22:46:57.523Z,7.23
2022-12-19T22:49:27.260Z,6.00
2022-12-19T22:51:56.975Z,6.33
2022-12-19T22:54:26.731Z,8.07
2022-12-19T22:56:59.036Z,6.80
2022-12-19T22:59:31.194Z,5.63
2022-12-19T23:02:01.166Z,7.57
2022-12-19T23:04:31.149Z,7.00
2022-12-19T23:07:00.915Z,7.20
2022-12-19T23:09:31.056Z,5.73
2022-12-19T23:12:03.415Z,6.87
2022-12-19T23:14:33.160Z,7.77
2022-12-19T23:17:03.009Z,6.57
2022-12-19T23:19:32.761Z,6.17
2022-12-19T23:22:03.354Z,6.07
2022-12-19T23:24:33.332Z,7.60
2022-12-19T23:27:05.835Z,10.13
2022-12-19T23:29:35.586Z,6.87
2022-12-19T23:32:05.453Z,7.27
2022-12-19T23:34:35.302Z,8.87
2022-12-19T23:37:12.951Z,7.13
2022-12-19T23:39:42.939Z,8.60
2022-12-19T23:42:15.254Z,6.57
2022-12-19T23:44:45.141Z,4.87
2022-12-19T23:47:14.939Z,7.97
2022-12-19T23:49:44.723Z,6.27
2022-12-19T23:52:14.779Z,6.30
2022-12-19T23:54:45.087Z,5.77
2022-12-19T23:57:17.498Z,9.63
2022-12-19T23:59:47.215Z,7.80
